Latest Weather Observations for Cape Grim

IDT60801

Issued at 8:51 am EDT Wednesday 7 December 2022 (issued every 10 minutes, with the page automatically refreshed every 10 minutes)

About weather observations | Map of weather stations | Latest weather observations for TAS | Other Formats
Station Details ID: 091331 Name: CAPE GRIM Lat: -40.68 Lon: 144.69 Height: 86.0 m
Data from the previous 72 hours. | See also: Recent months at Cape Grim
Date/Time
EDT
Temp
°C
App
Temp
°C
Dew
Point
°C
Rel
Hum
%
Delta-T
°C
Wind Press
QNH
hPa
Press
MSL
hPa
Rain since
9am
mm
Dir  Spd
km/h
Gust
km/h
Spd
kts
Gust
kts
07/08:30am 12.4 7.9 7.1 70 2.6 WSW 20 35 11 19 1003.4 1003.3 0.0
07/08:00am 12.4 8.1 7.7 73 2.3 WSW 20 37 11 20 1003.2 1003.1 0.0
07/07:30am 12.1 7.2 6.8 70 2.5 WSW 22 35 12 19 1003.5 1003.4 0.0
07/07:00am 12.1 7.5 5.5 64 3.1 WSW 19 37 10 20 1003.4 1003.3 0.0
07/06:30am 12.0 8.3 6.5 69 2.6 WSW 15 26 8 14 1003.4 1003.3 0.0
07/06:00am 11.7 7.5 5.6 66 2.9 WSW 17 28 9 15 1003.4 1003.3 0.0
07/05:30am 11.6 7.9 6.1 69 2.6 W 15 22 8 12 1003.2 1003.1 0.0
07/05:00am 11.6 7.7 6.9 73 2.3 W 17 24 9 13 1003.4 1003.3 0.0
07/04:30am 11.6 8.8 6.9 73 2.3 WSW 11 20 6 11 1003.2 1003.1 0.0
07/04:00am 11.3 8.5 7.0 75 2.1 WSW 11 17 6 9 1003.4 1003.3 0.0
07/03:30am 11.3 8.9 7.2 76 2.0 WSW 9 15 5 8 1003.5 1003.4 0.0
07/03:00am 10.8 8.3 6.4 74 2.1 WSW 9 17 5 9 1003.9 1003.8 0.0
07/02:30am 10.0 7.0 5.8 75 1.9 W 11 13 6 7 1004.4 1004.4 0.0
07/02:00am 10.2 8.5 5.8 74 2.0 WSW 4 9 2 5 1004.8 1004.8 0.0
07/01:30am 10.3 8.2 5.7 73 2.1 WSW 6 9 3 5 1005.0 1005.0 0.0
07/01:00am 10.6 8.5 5.8 72 2.2 SW 6 9 3 5 1005.5 1005.5 0.0
07/12:30am 10.3 7.6 5.7 73 2.1 WSW 9 13 5 7 1006.0 1005.9 0.0
07/12:00am 10.2 8.1 5.6 73 2.1 SSW 6 7 3 4 1006.4 1006.3 0.0
 
Date/Time
EDT
Temp
°C
App
Temp
°C
Dew
Point
°C
Rel
Hum
%
Delta-T
°C
Wind Press
QNH
hPa
Press
MSL
hPa
Rain since
9am
mm
Dir  Spd
km/h
Gust
km/h
Spd
kts
Gust
kts
06/11:30pm 10.6 7.8 5.2 69 2.5 SW 9 13 5 7 1006.8 1006.7 0.0
06/11:00pm 11.0 8.3 5.5 69 2.5 SW 9 13 5 7 1007.2 1007.1 0.0
06/10:30pm 11.3 8.6 5.8 69 2.6 WSW 9 15 5 8 1007.8 1007.7 0.0
06/10:00pm 11.0 7.9 5.5 69 2.5 WSW 11 15 6 8 1007.9 1007.8 0.0
06/09:30pm 11.3 8.3 5.8 69 2.6 WSW 11 20 6 11 1007.9 1007.8 0.0
06/09:00pm 11.4 8.0 5.7 68 2.7 W 13 20 7 11 1007.9 1007.8 0.0
06/08:30pm 11.7 7.9 6.0 68 2.7 W 15 22 8 12 1008.1 1008.0 0.0
06/08:00pm 11.8 7.7 6.1 68 2.7 W 17 22 9 12 1008.2 1008.1 0.0
06/07:30pm 12.4 8.5 6.9 69 2.6 W 17 24 9 13 1008.2 1008.1 0.0
06/07:00pm 13.1 8.5 6.7 65 3.1 W 20 26 11 14 1008.5 1008.4 0.0
06/06:30pm 13.4 9.1 7.0 65 3.1 W 19 24 10 13 1008.6 1008.5 0.0
06/06:00pm 13.6 8.9 6.2 61 3.6 W 20 30 11 16 1008.7 1008.6 0.0
06/05:30pm 13.9 9.6 7.2 64 3.3 W 19 24 10 13 1008.9 1008.8 0.0
06/05:00pm 13.9 10.0 7.2 64 3.3 W 17 22 9 12 1009.1 1009.0 0.0
06/04:30pm 14.1 10.7 7.6 65 3.2 W 15 22 8 12 1009.4 1009.3 0.0
06/04:00pm 13.9 10.8 7.2 64 3.3 W 13 19 7 10 1009.7 1009.6 0.0
06/03:30pm 13.6 9.6 6.5 62 3.4 W 17 22 9 12 1010.3 1010.2 0.0
06/03:00pm 14.1 9.8 7.2 63 3.4 W 19 26 10 14 1010.6 1010.5 0.0
06/02:30pm 14.8 10.6 8.1 64 3.4 WNW 20 24 11 13 1010.9 1010.8 0.0
06/02:00pm 14.8 10.7 8.7 67 3.1 WNW 20 26 11 14 1011.2 1011.1 0.0
06/01:30pm 15.0 11.2 9.1 68 3.0 WNW 19 24 10 13 1011.4 1011.3 0.0
06/01:00pm 14.2 10.8 7.5 64 3.3 W 15 20 8 11 1011.6 1011.5 0.0
06/12:30pm 14.1 11.6 8.3 68 2.9 W 11 15 6 8 1011.6 1011.5 0.0
06/12:00pm 13.8 11.2 7.8 67 3.0 W 11 13 6 7 1011.8 1011.7 0.0
06/11:30am 13.9 11.2 7.2 64 3.3 W 11 17 6 9 1012.1 1012.0 0.0
06/11:00am 13.9 11.6 5.8 58 3.9 WNW 7 13 4 7 1012.3 1012.2 0.0
06/10:30am 13.4 10.7 5.8 60 3.6 WNW 9 13 5 7 1012.6 1012.5 0.0
06/10:00am 13.8 11.8 7.1 64 3.3 NW 7 11 4 6 1012.7 1012.6 0.0
06/09:30am 12.2 10.1 5.8 65 3.0 WSW 6 9 3 5 1012.9 1012.8 0.0
06/09:00am 11.8 9.4 5.2 64 3.0 SW 7 9 4 5 1013.2 1013.1 0.0
06/08:30am 11.3 8.6 5.8 69 2.6 SSW 9 13 5 7 1013.3 1013.2 0.0
06/08:00am 11.5 7.9 5.2 65 2.9 SSW 13 19 7 10 1013.2 1013.1 0.0
06/07:30am 11.7 8.9 6.8 72 2.3 SSW 11 15 6 8 1013.3 1013.2 0.0
06/07:00am 11.5 8.7 7.0 74 2.2 SSE 11 13 6 7 1013.2 1013.1 0.0
06/06:30am 9.9 7.1 6.8 81 1.5 S 11 13 6 7 1013.2 1013.1 0.0
06/06:00am 9.6 6.8 6.9 83 1.3 S 11 13 6 7 1013.1 1013.0 0.0
06/05:30am 9.4 7.3 6.8 84 1.2 ESE 7 11 4 6 1012.9 1012.8 0.0
06/05:00am 10.9 10.5 8.1 83 1.4 CALM 0 0 0 0 1012.9 1012.8 0.0
06/04:30am 10.6 9.8 8.0 84 1.3 S 2 7 1 4 1012.8 1012.7 0.0
06/04:00am 10.8 9.9 7.7 81 1.5 ENE 2 7 1 4 1012.8 1012.7 0.0
06/03:30am 10.5 8.2 7.6 82 1.4 ESE 9 11 5 6 1012.9 1012.8 0.0
06/03:00am 10.3 7.1 7.0 80 1.6 SE 13 17 7 9 1013.1 1013.0 0.0
06/02:30am 10.1 6.1 6.6 79 1.6 SE 17 20 9 11 1013.0 1012.9 0.0
06/02:00am 10.0 6.0 6.7 80 1.6 SE 17 20 9 11 1013.0 1012.9 0.0
06/01:30am 9.8 5.9 6.9 82 1.4 SE 17 20 9 11 1013.2 1013.1 0.0
06/01:00am 10.2 6.6 6.7 79 1.7 SE 15 20 8 11 1013.1 1013.0 0.0
06/12:30am 10.3 6.3 6.6 78 1.7 SSE 17 26 9 14 1013.1 1013.0 0.0
06/12:00am 10.6 6.1 6.9 78 1.8 SSE 20 28 11 15 1013.3 1013.2 0.0
 
Date/Time
EDT
Temp
°C
App
Temp
°C
Dew
Point
°C
Rel
Hum
%
Delta-T
°C
Wind Press
QNH
hPa
Press
MSL
hPa
Rain since
9am
mm
Dir  Spd
km/h
Gust
km/h
Spd
kts
Gust
kts
05/11:30pm 11.0 5.8 7.1 77 1.9 S 24 33 13 18 1013.4 1013.3 0.0
05/11:00pm 11.2 4.5 7.3 77 1.9 S 32 44 17 24 1013.3 1013.2 0.0
05/10:30pm 11.1 5.3 8.0 81 1.5 S 28 43 15 23 1013.4 1013.3 0.0
05/10:11pm 11.2 4.4 7.9 80 1.6 S 33 52 18 28 1013.3 1013.2 0.0
05/10:00pm 11.3 4.6 8.0 80 1.6 S 33 46 18 25 1013.2 1013.1 0.0
05/09:34pm 11.5 4.4 8.2 80 1.6 S 35 54 19 29 1012.9 1012.8 0.0
05/09:30pm 11.5 4.1 8.2 80 1.6 S 37 50 20 27 1012.8 1012.7 0.0
05/09:00pm 11.7 2.2 8.4 80 1.6 SSW 48 59 26 32 1012.3 1012.2 0.0
05/08:45pm 11.9 2.8 8.6 80 1.6 SSW 46 65 25 35 1012.1 1012.0 0.0
05/08:30pm 12.2 3.6 8.9 80 1.7 SSW 44 59 24 32 1012.1 1012.0 0.0
05/08:01pm 12.6 4.0 8.9 78 1.9 SSW 44 63 24 34 1011.8 1011.7 0.0
05/08:00pm 12.7 3.8 9.2 79 1.8 SSW 46 63 25 34 1011.7 1011.6 0.0
05/07:49pm 12.7 3.0 9.2 79 1.8 SSW 50 69 27 37 1011.6 1011.5 0.0
05/07:30pm 12.9 2.5 9.2 78 1.9 SSW 54 69 29 37 1011.2 1011.1 0.0
05/07:14pm 13.2 3.6 9.6 79 1.8 SSW 50 69 27 37 1010.9 1010.8 0.0
05/07:00pm 13.2 2.9 9.6 79 1.8 SSW 54 67 29 36 1010.7 1010.6 0.0
05/06:33pm 13.2 2.2 9.1 76 2.1 SSW 57 76 31 41 1010.3 1010.2 0.0
05/06:30pm 13.2 2.2 9.3 77 2.0 SSW 57 74 31 40 1010.2 1010.1 0.0
05/06:00pm 13.3 2.4 9.4 77 2.0 SSW 57 76 31 41 1009.8 1009.7 0.0
05/05:30pm 13.5 1.8 9.2 75 2.2 SSW 61 80 33 43 1009.5 1009.4 0.0
05/05:03pm 13.9 2.8 10.1 78 2.0 SSW 59 78 32 42 1009.3 1009.2 0.0
05/05:00pm 13.9 2.3 9.7 76 2.2 SSW 61 76 33 41 1009.3 1009.2 0.0
05/04:36pm 14.0 2.0 9.8 76 2.2 SSW 63 82 34 44 1009.1 1009.0 0.0
05/04:30pm 14.1 1.8 10.1 77 2.1 SSW 65 82 35 44 1009.1 1009.0 0.0
05/04:00pm 14.3 2.1 10.3 77 2.1 SSW 65 83 35 45 1008.9 1008.8 0.0
05/03:30pm 14.4 3.3 10.2 76 2.2 SSW 59 80 32 43 1008.8 1008.7 0.0
05/03:00pm 14.7 3.8 10.9 78 2.0 SSW 59 80 32 43 1008.6 1008.5 0.0
05/02:39pm 14.5 3.1 10.5 77 2.1 SSW 61 80 33 43 1008.4 1008.3 0.0
05/02:30pm 14.7 3.0 10.7 77 2.1 SSW 63 80 34 43 1008.4 1008.3 0.0
05/02:00pm 14.9 4.1 11.3 79 1.9 SSW 59 82 32 44 1008.2 1008.1 0.0
05/01:30pm 15.1 4.3 11.1 77 2.1 SSW 59 80 32 43 1007.8 1007.7 0.0
05/01:12pm 15.1 3.4 10.9 76 2.2 SSW 63 82 34 44 1007.7 1007.6 0.0
05/01:00pm 15.1 2.9 10.5 74 2.4 SSW 65 80 35 43 1007.5 1007.4 0.0
05/12:34pm 14.8 3.0 10.6 76 2.2 SSW 63 83 34 45 1007.4 1007.3 0.0
05/12:30pm 14.6 3.2 10.6 77 2.1 SSW 61 78 33 42 1007.3 1007.2 0.0
05/12:07pm 14.8 3.6 11.2 79 1.9 SSW 61 83 33 45 1007.2 1007.1 0.0
05/12:00pm 14.7 3.1 11.3 80 1.8 SSW 63 78 34 42 1006.3 1006.2 0.0
05/11:30am 14.7 2.7 11.1 79 1.9 SSW 65 89 35 48 1007.2 1007.1 0.0
05/11:00am 14.2 2.1 10.8 80 1.8 SSW 65 87 35 47 1006.9 1006.8 0.0
05/10:30am 14.1 2.2 11.4 84 1.4 SSW 65 83 35 45 1007.0 1006.9 0.0
05/10:00am 14.2 3.5 11.5 84 1.5 SSW 59 83 32 45 1006.8 1006.7 0.0
05/09:30am 14.0 2.8 11.3 84 1.4 SSW 61 85 33 46 1006.8 1006.7 0.0
05/09:00am 14.0 2.4 11.0 82 1.6 SSW 63 91 34 49 1006.7 1006.6 0.0
05/08:30am 13.9 2.2 10.7 81 1.7 SSW 63 82 34 44 1006.5 1006.4 0.0
05/08:29am 13.9 2.2 10.7 81 1.7 SSW 63 82 34 44 1006.5 1006.4 0.0
05/08:24am 13.8 1.3 10.6 81 1.7 SSW 67 83 36 45 1006.4 1006.3 0.0
05/08:00am 13.8 2.2 11.0 83 1.5 SSW 63 83 34 45 1006.3 1006.2 0.0
05/07:30am 13.6 2.0 11.1 85 1.3 SSW 63 83 34 45 1005.9 1005.8 0.0
05/07:00am 13.5 3.1 11.4 87 1.1 SSW 57 78 31 42 1005.6 1005.6 0.0
05/06:30am 13.4 2.8 11.8 90 0.9 SSW 59 80 32 43 1005.3 1005.3 0.0
05/06:00am 13.5 3.8 11.9 90 0.9 SSW 54 80 29 43 1004.9 1004.9 0.0
05/05:31am 13.8 4.2 12.2 90 0.9 SSW 54 72 29 39 1004.4 1004.4 0.0
05/05:30am 13.9 4.0 12.3 90 0.9 SSW 56 72 30 39 1004.4 1004.4 0.0
05/05:03am 13.9 5.2 12.6 92 0.7 SSW 50 70 27 38 1003.9 1003.8 0.0
05/05:00am 13.9 5.2 12.6 92 0.7 SSW 50 65 27 35 1003.9 1003.8 0.0
05/04:37am 13.9 6.0 12.6 92 0.7 SSW 46 69 25 37 1003.6 1003.5 0.0
05/04:30am 13.8 5.4 12.4 91 0.8 SSW 48 61 26 33 1003.6 1003.5 0.0
05/04:20am 13.7 5.7 12.4 92 0.7 SSW 46 65 25 35 1003.6 1003.5 0.0
05/04:17am 13.8 6.2 12.5 92 0.7 SSW 44 61 24 33 1003.6 1003.5 0.0
05/04:00am 13.5 6.5 12.4 93 0.6 SSW 41 54 22 29 1003.5 1003.4 0.0
05/03:56am 13.5 6.4 12.2 92 0.7 SSW 41 57 22 31 1003.5 1003.4 0.0
05/03:30am 13.6 7.0 12.5 93 0.6 SSW 39 52 21 28 1003.5 1003.4 0.0
05/03:00am 13.8 7.0 13.0 95 0.4 SSW 41 56 22 30 1003.8 1003.7 0.0
05/02:37am 14.2 9.3 13.6 96 0.3 SSW 32 50 17 27 1004.0 1003.9 0.0
05/02:35am 14.2 9.2 13.4 95 0.4 SSW 32 43 17 23 1004.0 1003.9 0.0
05/02:30am 14.4 9.8 13.6 95 0.4 SSW 30 43 16 23 1004.0 1003.9 0.0
05/02:21am 14.3 10.1 13.5 95 0.4 SSW 28 41 15 22 1003.7 1003.6 0.0
05/02:00am 14.6 12.3 14.0 96 0.3 SSW 19 28 10 15 1004.2 1004.1 0.0
05/01:30am 14.7 13.5 14.1 96 0.3 SW 13 20 7 11 1004.6 1004.6 0.0
05/01:00am 14.7 14.7 14.1 96 0.3 WNW 7 13 4 7 1004.6 1004.6 0.0
05/12:30am 15.2 16.0 14.7 97 0.3 ENE 4 9 2 5 1004.9 1004.9 0.0
05/12:10am 14.8 14.5 14.3 97 0.3 E 9 15 5 8 1004.9 1004.9 0.0
05/12:00am 14.6 13.8 14.0 96 0.3 ESE 11 15 6 8 1004.0 1003.9 0.0
 
Date/Time
EDT
Temp
°C
App
Temp
°C
Dew
Point
°C
Rel
Hum
%
Delta-T
°C
Wind Press
QNH
hPa
Press
MSL
hPa
Rain since
9am
mm
Dir  Spd
km/h
Gust
km/h
Spd
kts
Gust
kts
04/11:30pm 14.9 13.4 14.3 96 0.3 ENE 15 22 8 12 1005.2 1005.2 0.0
04/11:00pm 14.9 13.0 14.3 96 0.3 ENE 17 19 9 10 1005.4 1005.4 0.0
04/10:30pm 14.9 13.0 14.3 96 0.3 ENE 17 24 9 13 1005.2 1005.2 0.0
04/10:00pm 15.1 12.9 14.5 96 0.3 ENE 19 24 10 13 1005.3 1005.3 0.0
04/09:30pm 15.2 12.1 14.6 96 0.3 ENE 24 28 13 15 1005.3 1005.3 0.0
04/09:00pm 15.2 11.7 14.6 96 0.3 ENE 26 30 14 16 1005.0 1005.0 0.0
04/08:30pm 15.4 12.3 14.6 95 0.5 ENE 24 26 13 14 1005.3 1005.3 0.0
04/08:00pm 15.6 12.1 14.6 94 0.6 ENE 26 33 14 18 1005.1 1005.1 0.0
04/07:30pm 15.5 11.6 14.5 94 0.6 ENE 28 35 15 19 1005.4 1005.4 0.0
04/07:00pm 16.0 10.9 14.7 92 0.8 ENE 35 41 19 22 1005.1 1005.1 0.0
04/06:45pm 15.6 10.4 14.6 94 0.6 ENE 35 43 19 23 1004.9 1004.9 0.0
04/06:30pm 15.4 10.7 14.4 94 0.6 NE 32 35 17 19 1005.5 1005.5 0.0
04/06:24pm 15.4 11.1 14.4 94 0.6 ENE 30 35 16 19 1005.5 1005.5 0.0
04/06:12pm 15.4 10.5 14.4 94 0.6 ENE 33 39 18 21 1005.5 1005.5 0.0
04/06:00pm 15.5 10.3 14.4 93 0.6 ENE 35 43 19 23 1005.3 1005.3 0.0
04/05:30pm 15.6 9.6 14.5 93 0.6 ENE 39 44 21 24 1005.4 1005.4 0.0
04/05:27pm 15.5 9.5 14.4 93 0.6 ENE 39 44 21 24 1005.4 1005.4 0.0
04/05:00pm 16.0 10.8 14.4 90 0.9 ENE 35 39 19 21 1006.1 1006.0 0.0
04/04:30pm 15.9 11.0 14.4 91 0.9 ENE 33 39 18 21 1006.7 1006.6 0.0
04/04:00pm 16.0 11.0 14.0 88 1.1 ENE 33 39 18 21 1007.3 1007.2 0.0
04/03:30pm 16.6 11.8 14.6 88 1.2 ENE 33 39 18 21 1007.4 1007.3 0.0
04/03:00pm 17.5 13.0 15.3 87 1.3 ENE 33 39 18 21 1007.8 1007.7 0.0
04/02:30pm 16.5 11.1 13.8 84 1.5 ENE 35 43 19 23 1008.2 1008.1 0.0
04/02:00pm 16.4 10.7 14.2 87 1.3 ENE 37 44 20 24 1008.7 1008.6 0.0
04/01:30pm 17.3 12.2 14.9 86 1.4 ENE 35 41 19 22 1009.3 1009.2 0.0
04/01:00pm 17.1 11.7 13.8 81 1.9 ENE 35 41 19 22 1009.6 1009.5 0.0
04/12:30pm 17.1 11.5 14.4 84 1.6 ENE 37 43 20 23 1009.6 1009.5 0.0
04/12:00pm 16.1 9.9 13.8 86 1.3 ENE 39 44 21 24 1010.0 1009.9 0.0
04/11:30am 16.4 10.5 14.6 89 1.0 ENE 39 46 21 25 1010.1 1010.0 0.0
04/11:00am 16.5 10.5 14.3 87 1.3 ENE 39 46 21 25 1010.5 1010.4 0.0
04/10:30am 16.0 10.0 14.4 90 0.9 ENE 39 46 21 25 1010.6 1010.5 0.0
04/10:01am 15.0 8.7 13.5 91 0.8 ENE 39 46 21 25 1010.8 1010.7 0.0
04/10:00am 15.0 8.7 13.5 91 0.8 ENE 39 46 21 25 1010.8 1010.7 0.0
04/09:30am 15.0 10.1 14.4 96 0.3 ENE 33 41 18 22 1011.1 1011.0 0.0
04/09:00am 14.5 9.8 14.2 98 0.2 ENE 32 37 17 20 1011.1 1011.0 0.4

Other formats

Comma delimited format used in spreadsheet applications
http://www.bom.gov.au/fwo/IDT60801/IDT60801.95954.axf

JavaScript Object Notation format (JSON) in row-major order
http://www.bom.gov.au/fwo/IDT60801/IDT60801.95954.json

Data quality

Most of these data are generated automatically and are frequently updated. Quality checks on data are not normally performed. It is possible for incorrect values to appear. Refer to information at About Latest Weather Observations and please check the disclaimer before using these data.